sensor_id;sensor_type;location;lat;lon;timestamp;temperature;humidity
1165;DHT22;571;50.930;6.926;2022-08-20T04:01:22;21.60;99.90
1165;DHT22;571;50.930;6.926;2022-08-20T04:03:49;21.60;99.90
1165;DHT22;571;50.930;6.926;2022-08-20T04:06:15;21.70;99.90
1165;DHT22;571;50.930;6.926;2022-08-20T04:08:42;21.80;99.90
1165;DHT22;571;50.930;6.926;2022-08-20T04:11:09;21.80;99.90
1165;DHT22;571;50.930;6.926;2022-08-20T04:13:36;21.70;99.90
1165;DHT22;571;50.930;6.926;2022-08-20T04:16:03;21.60;99.90
1165;DHT22;571;50.930;6.926;2022-08-20T04:18:34;21.70;99.90
1165;DHT22;571;50.930;6.926;2022-08-20T04:21:03;21.70;99.90
1165;DHT22;571;50.930;6.926;2022-08-20T04:23:30;21.70;99.90
1165;DHT22;571;50.930;6.926;2022-08-20T04:25:57;21.60;99.90
1165;DHT22;571;50.930;6.926;2022-08-20T04:28:26;21.50;99.90
1165;DHT22;571;50.930;6.926;2022-08-20T04:30:54;21.30;99.90
1165;DHT22;571;50.930;6.926;2022-08-20T04:33:22;21.10;99.90
1165;DHT22;571;50.930;6.926;2022-08-20T04:35:52;21.00;99.90
1165;DHT22;571;50.930;6.926;2022-08-20T04:38:21;21.20;99.90
1165;DHT22;571;50.930;6.926;2022-08-20T04:40:48;21.30;99.90
1165;DHT22;571;50.930;6.926;2022-08-20T04:43:24;21.30;99.90
1165;DHT22;571;50.930;6.926;2022-08-20T04:45:53;21.30;99.90
1165;DHT22;571;50.930;6.926;2022-08-20T04:48:20;21.10;99.90
1165;DHT22;571;50.930;6.926;2022-08-20T04:50:50;21.00;99.90
1165;DHT22;571;50.930;6.926;2022-08-20T04:53:21;21.00;99.90
1165;DHT22;571;50.930;6.926;2022-08-20T04:55:49;20.80;99.90
1165;DHT22;571;50.930;6.926;2022-08-20T04:58:18;20.80;99.90
1165;DHT22;571;50.930;6.926;2022-08-20T05:00:46;20.70;99.90
1165;DHT22;571;50.930;6.926;2022-08-20T05:03:13;20.80;99.90
1165;DHT22;571;50.930;6.926;2022-08-20T05:05:40;20.80;99.90
1165;DHT22;571;50.930;6.926;2022-08-20T05:08:07;20.90;99.90
1165;DHT22;571;50.930;6.926;2022-08-20T05:10:35;21.00;99.90
1165;DHT22;571;50.930;6.926;2022-08-20T05:13:02;21.20;99.90
1165;DHT22;571;50.930;6.926;2022-08-20T05:15:29;21.10;99.90
1165;DHT22;571;50.930;6.926;2022-08-20T05:17:57;21.00;99.90
1165;DHT22;571;50.930;6.926;2022-08-20T05:20:29;21.10;99.90
1165;DHT22;571;50.930;6.926;2022-08-20T05:22:56;21.30;99.90
1165;DHT22;571;50.930;6.926;2022-08-20T05:40:17;21.40;99.90
1165;DHT22;571;50.930;6.926;2022-08-20T05:43:30;21.50;99.90
1165;DHT22;571;50.930;6.926;2022-08-20T06:20:24;21.50;99.90
1165;DHT22;571;50.930;6.926;2022-08-20T06:24:08;21.60;99.90
1165;DHT22;571;50.930;6.926;2022-08-20T06:36:16;21.30;99.90
1165;DHT22;571;50.930;6.926;2022-08-20T06:42:52;21.00;99.90
1165;DHT22;571;50.930;6.926;2022-08-20T07:04:02;21.60;99.90
1165;DHT22;571;50.930;6.926;2022-08-20T07:14:27;21.70;99.90
1165;DHT22;571;50.930;6.926;2022-08-20T07:17:36;21.70;99.90
1165;DHT22;571;50.930;6.926;2022-08-20T07:37:50;21.80;99.90
1165;DHT22;571;50.930;6.926;2022-08-20T07:40:38;21.60;99.90
1165;DHT22;571;50.930;6.926;2022-08-20T08:18:07;22.00;98.40
1165;DHT22;571;50.930;6.926;2022-08-20T08:24:45;22.10;98.50
1165;DHT22;571;50.930;6.926;2022-08-20T08:48:29;22.30;97.60
1165;DHT22;571;50.930;6.926;2022-08-20T08:55:31;22.30;97.30
1165;DHT22;571;50.930;6.926;2022-08-20T08:58:20;22.40;97.00
1165;DHT22;571;50.930;6.926;2022-08-20T09:04:47;22.70;97.10
1165;DHT22;571;50.930;6.926;2022-08-20T09:08:03;22.70;97.00
1165;DHT22;571;50.930;6.926;2022-08-20T09:14:04;22.80;96.30
1165;DHT22;571;50.930;6.926;2022-08-20T09:16:31;23.00;95.80
1165;DHT22;571;50.930;6.926;2022-08-20T09:18:58;22.90;96.00
1165;DHT22;571;50.930;6.926;2022-08-20T09:21:26;23.00;96.20
1165;DHT22;571;50.930;6.926;2022-08-20T09:23:53;23.00;96.10
1165;DHT22;571;50.930;6.926;2022-08-20T09:26:19;23.00;96.00
1165;DHT22;571;50.930;6.926;2022-08-20T09:28:46;23.10;96.10
1165;DHT22;571;50.930;6.926;2022-08-20T09:31:13;23.20;95.80
1165;DHT22;571;50.930;6.926;2022-08-20T09:33:39;23.10;95.40
1165;DHT22;571;50.930;6.926;2022-08-20T09:36:07;22.90;95.70
1165;DHT22;571;50.930;6.926;2022-08-20T09:38:35;23.00;95.60
1165;DHT22;571;50.930;6.926;2022-08-20T09:41:01;22.90;95.80
1165;DHT22;571;50.930;6.926;2022-08-20T09:43:28;22.90;96.30
1165;DHT22;571;50.930;6.926;2022-08-20T09:45:55;22.90;95.90
1165;DHT22;571;50.930;6.926;2022-08-20T09:48:22;23.10;95.60
1165;DHT22;571;50.930;6.926;2022-08-20T09:50:49;23.00;95.80
1165;DHT22;571;50.930;6.926;2022-08-20T09:53:17;23.00;95.70
1165;DHT22;571;50.930;6.926;2022-08-20T09:55:50;23.00;95.80
1165;DHT22;571;50.930;6.926;2022-08-20T09:58:20;23.00;96.10
1165;DHT22;571;50.930;6.926;2022-08-20T10:00:48;23.00;95.90
1165;DHT22;571;50.930;6.926;2022-08-20T10:03:15;23.10;95.80
1165;DHT22;571;50.930;6.926;2022-08-20T10:05:43;23.10;95.70
1165;DHT22;571;50.930;6.926;2022-08-20T10:08:11;23.00;95.90
1165;DHT22;571;50.930;6.926;2022-08-20T10:10:38;22.90;96.60
1165;DHT22;571;50.930;6.926;2022-08-20T10:13:06;22.60;96.70
1165;DHT22;571;50.930;6.926;2022-08-20T10:15:33;22.70;95.80
1165;DHT22;571;50.930;6.926;2022-08-20T10:18:02;22.80;95.80
1165;DHT22;571;50.930;6.926;2022-08-20T10:20:30;22.90;96.30
1165;DHT22;571;50.930;6.926;2022-08-20T10:22:57;23.10;95.50
1165;DHT22;571;50.930;6.926;2022-08-20T10:25:24;23.20;95.00
1165;DHT22;571;50.930;6.926;2022-08-20T10:27:50;23.50;94.30
1165;DHT22;571;50.930;6.926;2022-08-20T10:30:19;23.50;94.20
1165;DHT22;571;50.930;6.926;2022-08-20T10:32:46;23.50;94.30
1165;DHT22;571;50.930;6.926;2022-08-20T10:35:13;23.50;94.20
1165;DHT22;571;50.930;6.926;2022-08-20T10:37:41;23.60;94.50
1165;DHT22;571;50.930;6.926;2022-08-20T10:40:09;23.80;94.40
1165;DHT22;571;50.930;6.926;2022-08-20T10:42:35;23.90;94.80
1165;DHT22;571;50.930;6.926;2022-08-20T10:45:03;23.90;93.80
1165;DHT22;571;50.930;6.926;2022-08-20T10:47:32;23.90;93.80
1165;DHT22;571;50.930;6.926;2022-08-20T10:50:00;23.90;93.60
1165;DHT22;571;50.930;6.926;2022-08-20T10:52:28;23.90;93.40
1165;DHT22;571;50.930;6.926;2022-08-20T10:54:55;23.80;93.60
1165;DHT22;571;50.930;6.926;2022-08-20T10:57:25;23.90;94.40
1165;DHT22;571;50.930;6.926;2022-08-20T10:59:54;24.00;94.30
1165;DHT22;571;50.930;6.926;2022-08-20T11:02:21;24.50;93.50
1165;DHT22;571;50.930;6.926;2022-08-20T11:04:50;24.90;93.30
1165;DHT22;571;50.930;6.926;2022-08-20T11:07:20;25.10;91.70
1165;DHT22;571;50.930;6.926;2022-08-20T11:09:49;25.30;91.90
1165;DHT22;571;50.930;6.926;2022-08-20T11:12:17;25.20;91.20
1165;DHT22;571;50.930;6.926;2022-08-20T11:14:45;25.30;91.00
1165;DHT22;571;50.930;6.926;2022-08-20T11:17:18;25.40;90.30
1165;DHT22;571;50.930;6.926;2022-08-20T11:19:45;25.40;89.90
1165;DHT22;571;50.930;6.926;2022-08-20T11:22:16;25.20;88.70
1165;DHT22;571;50.930;6.926;2022-08-20T11:24:43;25.30;90.30
1165;DHT22;571;50.930;6.926;2022-08-20T11:27:14;25.40;89.90
1165;DHT22;571;50.930;6.926;2022-08-20T11:29:43;25.50;90.50
1165;DHT22;571;50.930;6.926;2022-08-20T11:32:10;25.80;88.20
1165;DHT22;571;50.930;6.926;2022-08-20T11:34:37;25.80;87.70
1165;DHT22;571;50.930;6.926;2022-08-20T11:37:04;25.80;87.80
1165;DHT22;571;50.930;6.926;2022-08-20T11:39:32;25.60;89.70
1165;DHT22;571;50.930;6.926;2022-08-20T11:41:58;25.80;88.20
1165;DHT22;571;50.930;6.926;2022-08-20T11:44:26;26.00;86.90
1165;DHT22;571;50.930;6.926;2022-08-20T11:46:53;26.20;86.90
1165;DHT22;571;50.930;6.926;2022-08-20T11:49:22;26.40;86.20
1165;DHT22;571;50.930;6.926;2022-08-20T11:51:49;26.50;86.40
1165;DHT22;571;50.930;6.926;2022-08-20T11:54:16;26.60;86.50
1165;DHT22;571;50.930;6.926;2022-08-20T11:56:44;26.60;85.20
1165;DHT22;571;50.930;6.926;2022-08-20T11:59:11;26.50;84.80
1165;DHT22;571;50.930;6.926;2022-08-20T12:01:37;26.60;85.10
1165;DHT22;571;50.930;6.926;2022-08-20T12:04:04;26.80;84.60
1165;DHT22;571;50.930;6.926;2022-08-20T12:06:31;27.10;82.60
1165;DHT22;571;50.930;6.926;2022-08-20T12:08:58;27.40;80.70
1165;DHT22;571;50.930;6.926;2022-08-20T12:11:25;27.80;78.40
1165;DHT22;571;50.930;6.926;2022-08-20T12:13:53;27.90;76.50
1165;DHT22;571;50.930;6.926;2022-08-20T12:16:20;27.90;77.10
1165;DHT22;571;50.930;6.926;2022-08-20T12:18:47;28.20;76.80
1165;DHT22;571;50.930;6.926;2022-08-20T12:21:15;28.50;74.30
1165;DHT22;571;50.930;6.926;2022-08-20T12:23:42;28.70;73.30
1165;DHT22;571;50.930;6.926;2022-08-20T12:26:08;28.50;73.00
1165;DHT22;571;50.930;6.926;2022-08-20T12:28:35;28.60;73.40
1165;DHT22;571;50.930;6.926;2022-08-20T12:31:04;28.70;73.20
1165;DHT22;571;50.930;6.926;2022-08-20T12:33:30;29.00;71.00
1165;DHT22;571;50.930;6.926;2022-08-20T12:35:57;28.90;70.50
1165;DHT22;571;50.930;6.926;2022-08-20T12:38:24;28.90;70.20
1165;DHT22;571;50.930;6.926;2022-08-20T12:40:51;28.80;71.60
1165;DHT22;571;50.930;6.926;2022-08-20T12:43:18;29.10;71.60
1165;DHT22;571;50.930;6.926;2022-08-20T12:45:44;29.40;70.50
1165;DHT22;571;50.930;6.926;2022-08-20T12:48:13;29.80;67.00
1165;DHT22;571;50.930;6.926;2022-08-20T12:50:43;30.00;67.80
1165;DHT22;571;50.930;6.926;2022-08-20T12:53:10;30.00;66.40
1165;DHT22;571;50.930;6.926;2022-08-20T12:55:37;29.80;65.80
1165;DHT22;571;50.930;6.926;2022-08-20T12:58:08;29.50;66.70
1165;DHT22;571;50.930;6.926;2022-08-20T13:00:36;29.10;65.80
1165;DHT22;571;50.930;6.926;2022-08-20T13:03:04;28.60;68.40
1165;DHT22;571;50.930;6.926;2022-08-20T13:05:34;28.60;66.20
1165;DHT22;571;50.930;6.926;2022-08-20T13:08:03;28.00;68.00
1165;DHT22;571;50.930;6.926;2022-08-20T13:10:34;28.20;69.30
1165;DHT22;571;50.930;6.926;2022-08-20T13:13:01;28.50;66.30
1165;DHT22;571;50.930;6.926;2022-08-20T13:15:28;28.40;67.20
1165;DHT22;571;50.930;6.926;2022-08-20T13:17:57;28.30;69.70
1165;DHT22;571;50.930;6.926;2022-08-20T13:20:25;29.00;68.00
1165;DHT22;571;50.930;6.926;2022-08-20T13:22:54;29.50;65.00
1165;DHT22;571;50.930;6.926;2022-08-20T13:25:22;30.20;65.30
1165;DHT22;571;50.930;6.926;2022-08-20T13:27:49;31.10;60.40
1165;DHT22;571;50.930;6.926;2022-08-20T13:30:20;31.20;58.50
1165;DHT22;571;50.930;6.926;2022-08-20T13:32:46;31.60;57.00
1165;DHT22;571;50.930;6.926;2022-08-20T13:35:14;31.30;55.00
1165;DHT22;571;50.930;6.926;2022-08-20T13:37:41;30.90;56.60
1165;DHT22;571;50.930;6.926;2022-08-20T13:40:10;30.60;58.00
1165;DHT22;571;50.930;6.926;2022-08-20T13:42:37;30.50;58.60
1165;DHT22;571;50.930;6.926;2022-08-20T13:45:05;30.80;56.60
1165;DHT22;571;50.930;6.926;2022-08-20T13:47:35;31.60;56.20
1165;DHT22;571;50.930;6.926;2022-08-20T13:50:05;32.30;53.60
1165;DHT22;571;50.930;6.926;2022-08-20T13:52:32;31.90;51.20
1165;DHT22;571;50.930;6.926;2022-08-20T13:54:59;31.70;51.70
1165;DHT22;571;50.930;6.926;2022-08-20T13:57:28;31.80;51.40
1165;DHT22;571;50.930;6.926;2022-08-20T13:59:56;31.80;50.30
1165;DHT22;571;50.930;6.926;2022-08-20T14:02:24;32.30;49.30
1165;DHT22;571;50.930;6.926;2022-08-20T14:04:51;32.30;49.10
1165;DHT22;571;50.930;6.926;2022-08-20T14:07:20;32.30;46.10
1165;DHT22;571;50.930;6.926;2022-08-20T14:09:51;32.50;44.70
1165;DHT22;571;50.930;6.926;2022-08-20T14:12:19;33.00;46.70
1165;DHT22;571;50.930;6.926;2022-08-20T14:14:49;33.20;43.50
1165;DHT22;571;50.930;6.926;2022-08-20T14:17:17;33.30;44.70
1165;DHT22;571;50.930;6.926;2022-08-20T14:19:46;33.50;43.80
1165;DHT22;571;50.930;6.926;2022-08-20T14:22:14;33.70;42.20
1165;DHT22;571;50.930;6.926;2022-08-20T14:24:42;33.60;41.90
1165;DHT22;571;50.930;6.926;2022-08-20T14:27:09;33.60;41.90
1165;DHT22;571;50.930;6.926;2022-08-20T14:29:37;33.70;42.70
1165;DHT22;571;50.930;6.926;2022-08-20T14:32:08;33.70;41.90
1165;DHT22;571;50.930;6.926;2022-08-20T14:34:36;33.60;41.50
1165;DHT22;571;50.930;6.926;2022-08-20T14:37:11;34.10;41.40
1165;DHT22;571;50.930;6.926;2022-08-20T14:39:38;34.30;41.20
1165;DHT22;571;50.930;6.926;2022-08-20T14:42:05;34.30;41.40
1165;DHT22;571;50.930;6.926;2022-08-20T14:44:32;34.40;39.90
1165;DHT22;571;50.930;6.926;2022-08-20T14:47:11;34.60;37.20
1165;DHT22;571;50.930;6.926;2022-08-20T14:49:38;34.40;36.90
1165;DHT22;571;50.930;6.926;2022-08-20T14:52:05;34.30;38.40
1165;DHT22;571;50.930;6.926;2022-08-20T14:54:32;34.00;39.40
1165;DHT22;571;50.930;6.926;2022-08-20T14:57:00;34.10;38.80
1165;DHT22;571;50.930;6.926;2022-08-20T14:59:26;33.80;39.60
1165;DHT22;571;50.930;6.926;2022-08-20T15:01:53;34.10;39.10
1165;DHT22;571;50.930;6.926;2022-08-20T15:04:21;34.50;37.50
1165;DHT22;571;50.930;6.926;2022-08-20T15:06:48;34.60;38.20
1165;DHT22;571;50.930;6.926;2022-08-20T15:09:15;35.00;37.80
1165;DHT22;571;50.930;6.926;2022-08-20T15:11:42;35.70;37.40
1165;DHT22;571;50.930;6.926;2022-08-20T15:14:09;35.60;36.00
1165;DHT22;571;50.930;6.926;2022-08-20T15:16:36;35.90;35.10
1165;DHT22;571;50.930;6.926;2022-08-20T15:19:04;36.10;34.20
1165;DHT22;571;50.930;6.926;2022-08-20T15:21:32;35.80;34.00
1165;DHT22;571;50.930;6.926;2022-08-20T15:23:59;35.90;32.60
1165;DHT22;571;50.930;6.926;2022-08-20T15:26:26;35.80;31.10
1165;DHT22;571;50.930;6.926;2022-08-20T15:28:54;35.90;33.30
1165;DHT22;571;50.930;6.926;2022-08-20T15:31:20;35.90;32.60
1165;DHT22;571;50.930;6.926;2022-08-20T15:33:47;36.00;31.90
1165;DHT22;571;50.930;6.926;2022-08-20T15:36:14;35.50;30.90
1165;DHT22;571;50.930;6.926;2022-08-20T15:38:42;35.50;31.20
1165;DHT22;571;50.930;6.926;2022-08-20T15:41:09;35.50;30.50
1165;DHT22;571;50.930;6.926;2022-08-20T15:43:36;35.60;30.60
1165;DHT22;571;50.930;6.926;2022-08-20T15:46:05;35.50;31.20
1165;DHT22;571;50.930;6.926;2022-08-20T15:48:35;35.70;31.20
1165;DHT22;571;50.930;6.926;2022-08-20T15:51:15;35.70;30.90
1165;DHT22;571;50.930;6.926;2022-08-20T15:53:53;36.10;31.10
1165;DHT22;571;50.930;6.926;2022-08-20T15:56:33;36.10;31.10
1165;DHT22;571;50.930;6.926;2022-08-20T15:59:11;36.00;31.90
1165;DHT22;571;50.930;6.926;2022-08-20T16:01:43;36.20;31.40
1165;DHT22;571;50.930;6.926;2022-08-20T16:04:22;36.10;30.60
1165;DHT22;571;50.930;6.926;2022-08-20T16:06:54;36.00;30.00
1165;DHT22;571;50.930;6.926;2022-08-20T16:09:37;35.70;31.20
1165;DHT22;571;50.930;6.926;2022-08-20T16:12:09;34.50;31.00
1165;DHT22;571;50.930;6.926;2022-08-20T16:14:42;33.20;31.90
1165;DHT22;571;50.930;6.926;2022-08-20T16:17:13;32.70;33.30
1165;DHT22;571;50.930;6.926;2022-08-20T16:19:50;32.30;33.60
1165;DHT22;571;50.930;6.926;2022-08-20T16:22:45;31.70;35.30
1165;DHT22;571;50.930;6.926;2022-08-20T16:25:53;31.50;35.50
1165;DHT22;571;50.930;6.926;2022-08-20T16:32:17;29.90;37.90
1165;DHT22;571;50.930;6.926;2022-08-20T16:38:19;29.70;39.00
1165;DHT22;571;50.930;6.926;2022-08-20T16:42:19;29.50;39.00
1165;DHT22;571;50.930;6.926;2022-08-20T16:45:01;29.20;40.30
1165;DHT22;571;50.930;6.926;2022-08-20T16:47:45;28.90;39.90
1165;DHT22;571;50.930;6.926;2022-08-20T16:51:04;28.90;39.70
1165;DHT22;571;50.930;6.926;2022-08-20T16:54:16;28.70;39.70
1165;DHT22;571;50.930;6.926;2022-08-20T17:00:37;28.70;39.60
1165;DHT22;571;50.930;6.926;2022-08-20T17:10:28;28.50;40.30
1165;DHT22;571;50.930;6.926;2022-08-20T17:14:00;28.30;39.90
1165;DHT22;571;50.930;6.926;2022-08-20T17:16:53;28.20;39.90
1165;DHT22;571;50.930;6.926;2022-08-20T17:19:57;28.20;41.40
1165;DHT22;571;50.930;6.926;2022-08-20T17:26:07;27.90;41.90
1165;DHT22;571;50.930;6.926;2022-08-20T17:30:04;27.70;41.90
1165;DHT22;571;50.930;6.926;2022-08-20T17:32:33;27.70;42.40
1165;DHT22;571;50.930;6.926;2022-08-20T17:35:25;27.70;42.90
1165;DHT22;571;50.930;6.926;2022-08-20T17:38:48;27.60;43.30
1165;DHT22;571;50.930;6.926;2022-08-20T17:41:24;27.40;43.50
1165;DHT22;571;50.930;6.926;2022-08-20T17:47:01;26.90;44.20
1165;DHT22;571;50.930;6.926;2022-08-20T17:49:52;27.10;44.90
1165;DHT22;571;50.930;6.926;2022-08-20T17:52:36;27.20;45.00
1165;DHT22;571;50.930;6.926;2022-08-20T17:58:36;27.10;45.20
1165;DHT22;571;50.930;6.926;2022-08-20T18:01:18;27.10;45.70
1165;DHT22;571;50.930;6.926;2022-08-20T18:04:06;26.80;46.00
1165;DHT22;571;50.930;6.926;2022-08-20T18:07:04;26.70;46.40
1165;DHT22;571;50.930;6.926;2022-08-20T18:09:57;26.40;47.00
1165;DHT22;571;50.930;6.926;2022-08-20T18:12:43;26.40;47.30
1165;DHT22;571;50.930;6.926;2022-08-20T18:15:22;26.40;47.80
1165;DHT22;571;50.930;6.926;2022-08-20T18:18:07;26.10;49.00
1165;DHT22;571;50.930;6.926;2022-08-20T18:23:44;25.90;50.20
1165;DHT22;571;50.930;6.926;2022-08-20T18:26:15;25.80;49.50
1165;DHT22;571;50.930;6.926;2022-08-20T18:28:56;25.70;50.40
1165;DHT22;571;50.930;6.926;2022-08-20T18:31:38;25.70;50.60
1165;DHT22;571;50.930;6.926;2022-08-20T18:34:13;25.60;50.20
1165;DHT22;571;50.930;6.926;2022-08-20T18:36:53;25.60;50.90
1165;DHT22;571;50.930;6.926;2022-08-20T18:39:34;25.50;51.90
1165;DHT22;571;50.930;6.926;2022-08-20T18:42:24;25.60;51.20
1165;DHT22;571;50.930;6.926;2022-08-20T18:45:02;25.50;51.40
1165;DHT22;571;50.930;6.926;2022-08-20T18:47:44;25.50;51.60
1165;DHT22;571;50.930;6.926;2022-08-20T18:50:23;25.30;52.90
1165;DHT22;571;50.930;6.926;2022-08-20T18:53:09;25.10;53.30
1165;DHT22;571;50.930;6.926;2022-08-20T18:55:58;24.90;54.40
1165;DHT22;571;50.930;6.926;2022-08-20T18:58:33;24.70;55.80
1165;DHT22;571;50.930;6.926;2022-08-20T19:01:20;24.60;55.40
1165;DHT22;571;50.930;6.926;2022-08-20T19:04:00;24.60;56.00
1165;DHT22;571;50.930;6.926;2022-08-20T19:06:42;24.50;56.40
1165;DHT22;571;50.930;6.926;2022-08-20T19:09:43;24.50;56.70
1165;DHT22;571;50.930;6.926;2022-08-20T19:12:33;24.30;57.60
1165;DHT22;571;50.930;6.926;2022-08-20T19:15:11;24.20;57.00
1165;DHT22;571;50.930;6.926;2022-08-20T19:17:50;24.10;58.50
1165;DHT22;571;50.930;6.926;2022-08-20T19:20:22;24.00;59.70
1165;DHT22;571;50.930;6.926;2022-08-20T19:22:50;23.90;60.20
1165;DHT22;571;50.930;6.926;2022-08-20T19:25:23;23.80;61.20
1165;DHT22;571;50.930;6.926;2022-08-20T19:27:55;23.70;61.40
1165;DHT22;571;50.930;6.926;2022-08-20T19:30:38;23.60;62.50
1165;DHT22;571;50.930;6.926;2022-08-20T19:33:06;23.50;64.00
1165;DHT22;571;50.930;6.926;2022-08-20T19:35:34;23.40;64.20
1165;DHT22;571;50.930;6.926;2022-08-20T19:38:04;23.40;65.40
1165;DHT22;571;50.930;6.926;2022-08-20T19:40:32;23.20;66.20
1165;DHT22;571;50.930;6.926;2022-08-20T19:43:05;23.20;67.70
1165;DHT22;571;50.930;6.926;2022-08-20T19:45:37;23.10;68.30
1165;DHT22;571;50.930;6.926;2022-08-20T19:48:13;23.00;69.30
1165;DHT22;571;50.930;6.926;2022-08-20T19:50:50;22.90;70.50
1165;DHT22;571;50.930;6.926;2022-08-20T19:53:23;22.90;71.80
1165;DHT22;571;50.930;6.926;2022-08-20T19:56:02;22.80;73.10
1165;DHT22;571;50.930;6.926;2022-08-20T19:58:32;22.80;74.50
1165;DHT22;571;50.930;6.926;2022-08-20T20:01:01;22.70;75.70
1165;DHT22;571;50.930;6.926;2022-08-20T20:03:30;22.60;76.60
1165;DHT22;571;50.930;6.926;2022-08-20T20:06:01;22.60;77.90
1165;DHT22;571;50.930;6.926;2022-08-20T20:08:35;22.50;78.20
1165;DHT22;571;50.930;6.926;2022-08-20T20:11:03;22.50;79.00
1165;DHT22;571;50.930;6.926;2022-08-20T20:13:32;22.40;79.40
1165;DHT22;571;50.930;6.926;2022-08-20T20:16:00;22.40;80.50
1165;DHT22;571;50.930;6.926;2022-08-20T20:18:29;22.30;81.70
1165;DHT22;571;50.930;6.926;2022-08-20T20:21:10;22.30;82.60
1165;DHT22;571;50.930;6.926;2022-08-20T20:23:37;22.20;82.30
1165;DHT22;571;50.930;6.926;2022-08-20T20:26:06;22.20;83.60
1165;DHT22;571;50.930;6.926;2022-08-20T20:28:44;22.10;84.70
1165;DHT22;571;50.930;6.926;2022-08-20T20:31:13;22.10;84.30
1165;DHT22;571;50.930;6.926;2022-08-20T20:33:43;22.10;85.10
1165;DHT22;571;50.930;6.926;2022-08-20T20:36:30;22.00;85.10
1165;DHT22;571;50.930;6.926;2022-08-20T20:39:00;22.00;86.10
1165;DHT22;571;50.930;6.926;2022-08-20T20:41:28;21.90;86.10
1165;DHT22;571;50.930;6.926;2022-08-20T20:44:04;21.90;86.90
1165;DHT22;571;50.930;6.926;2022-08-20T20:46:33;21.80;87.40
1165;DHT22;571;50.930;6.926;2022-08-20T20:49:11;21.80;87.30
1165;DHT22;571;50.930;6.926;2022-08-20T20:51:54;21.70;87.80
1165;DHT22;571;50.930;6.926;2022-08-20T20:54:27;21.70;88.10
1165;DHT22;571;50.930;6.926;2022-08-20T20:57:00;21.60;87.60
1165;DHT22;571;50.930;6.926;2022-08-20T20:59:30;21.60;88.70
1165;DHT22;571;50.930;6.926;2022-08-20T21:01:57;21.60;88.60
1165;DHT22;571;50.930;6.926;2022-08-20T21:04:24;21.50;89.10
1165;DHT22;571;50.930;6.926;2022-08-20T21:06:53;21.50;89.80
1165;DHT22;571;50.930;6.926;2022-08-20T21:09:22;21.50;89.20
1165;DHT22;571;50.930;6.926;2022-08-20T21:11:49;21.50;89.00
1165;DHT22;571;50.930;6.926;2022-08-20T21:14:16;21.60;88.00
1165;DHT22;571;50.930;6.926;2022-08-20T21:16:45;21.60;88.60
1165;DHT22;571;50.930;6.926;2022-08-20T21:19:12;21.60;88.20
1165;DHT22;571;50.930;6.926;2022-08-20T21:21:40;21.60;88.50
1165;DHT22;571;50.930;6.926;2022-08-20T21:24:07;21.50;89.00
1165;DHT22;571;50.930;6.926;2022-08-20T21:26:35;21.60;88.00
1165;DHT22;571;50.930;6.926;2022-08-20T21:29:03;21.60;88.70
1165;DHT22;571;50.930;6.926;2022-08-20T21:31:33;21.50;88.60
1165;DHT22;571;50.930;6.926;2022-08-20T21:34:02;21.60;88.90
1165;DHT22;571;50.930;6.926;2022-08-20T21:36:29;21.50;89.00
1165;DHT22;571;50.930;6.926;2022-08-20T21:38:56;21.70;87.00
1165;DHT22;571;50.930;6.926;2022-08-20T21:41:23;21.90;86.10
1165;DHT22;571;50.930;6.926;2022-08-20T21:43:50;21.80;88.10
1165;DHT22;571;50.930;6.926;2022-08-20T21:46:17;21.70;89.50
1165;DHT22;571;50.930;6.926;2022-08-20T21:48:44;21.70;87.10
1165;DHT22;571;50.930;6.926;2022-08-20T21:51:12;21.90;87.20
1165;DHT22;571;50.930;6.926;2022-08-20T21:53:39;21.80;88.10
1165;DHT22;571;50.930;6.926;2022-08-20T21:56:07;21.70;89.10
1165;DHT22;571;50.930;6.926;2022-08-20T21:58:33;21.70;88.40
